Abu Dhabi International Airport

OMAA | AUH

Abu Dhabi , Abu-Dhabi , United Arab Emirates

Saturday, September 21st, 2019 | 16:08

Weather

OMAA 211200Z 31014KT CAVOK 37/23 Q1002 NOSIG

Charts

No Charts Available

Gates

53 Available

Runways

2 Available

Events

No events for this airport


New event